PST,Max TemperatureF,Mean TemperatureF,Min TemperatureF,Max Dew PointF,MeanDew PointF,Min DewpointF,Max Humidity, Mean Humidity, Min Humidity, Max Sea Level PressureIn, Mean Sea Level PressureIn, Min Sea Level PressureIn, Max VisibilityMiles, Mean VisibilityMiles, Min VisibilityMiles, Max Wind SpeedMPH, Mean Wind SpeedMPH, Max Gust SpeedMPH,PrecipitationIn, CloudCover, Events, WindDirDegrees
2012-12-1,53,50,46,54,49,46,100,96,82,29.77,29.72,29.66,10,10,10,8,4,,0.00,6,,209
2012-12-2,50,48,46,48,47,43,100,93,76,29.79,29.61,29.38,10,10,7,14,10,23,0.00,8,Rain,232
2012-12-3,50,48,46,50,48,46,100,100,100,30.06,30.04,30.00,10,9,8,6,3,,0.00,8,Rain,125
2012-12-4,57,50,44,57,49,45,100,100,100,29.83,29.80,29.75,10,5,0,15,3,22,0.00,8,Rain,204
2012-12-5,48,44,41,45,43,41,100,97,87,30.25,30.20,30.12,10,10,10,8,5,,0.00,6,,186
2012-12-6,46,42,39,46,44,39,100,100,100,30.22,30.17,30.12,10,8,1,9,4,,0.00,8,Rain,230
2012-12-7,48,46,44,48,45,45,100,100,100,30.14,30.11,30.08,10,8,6,12,7,17,0.00,8,Rain,233
2012-12-8,42,42,41,43,41,41,100,100,100,30.30,30.26,30.22,10,6,4,9,6,,0.00,8,Rain,227
2012-12-9,42,40,39,43,41,39,100,100,100,30.43,30.39,30.34,10,5,2,4,1,,0.00,8,,294
2012-12-10,50,49,46,50,48,46,100,100,100,30.40,30.39,30.32,10,9,7,10,9,16,0.00,7,,220
2012-12-11,44,42,39,45,42,39,100,100,100,29.90,29.79,29.65,10,4,0,9,4,,0.00,8,Rain,221
2012-12-12,42,42,41,43,42,41,100,100,100,29.95,29.85,29.78,10,9,7,6,5,,0.00,8,Rain,227
2012-12-13,41,39,37,41,39,37,100,100,100,30.07,30.02,29.93,10,10,10,5,2,,0.00,7,,68
2012-12-14,41,38,35,41,38,36,100,100,100,29.97,29.90,29.86,10,7,3,8,3,,0.00,8,Rain,215
2012-12-15,35,34,32,36,33,32,100,100,100,29.89,29.80,29.70,10,5,0,4,2,,0.00,8,Fog-Rain-Snow,80
2012-12-16,39,37,35,39,37,36,100,100,100,29.82,29.66,29.35,7,4,0,4,3,,0.00,8,Fog-Rain,290
2012-12-17,41,39,37,41,40,37,100,100,100,29.91,29.76,29.54,10,7,2,20,14,26,0.00,8,Rain,240
2012-12-18,35,34,33,36,35,34,100,100,100,30.05,30.02,29.99,10,6,3,13,5,18,0.00,8,Rain-Snow,220
2012-12-19,32,32,32,32,32,32,100,100,100,29.99,29.90,29.79,10,3,0,4,1,,0.00,8,Fog-Rain-Snow,175
2012-12-20,33,33,33,34,34,34,100,100,100,29.86,29.76,29.67,10,7,3,2,2,,0.00,8,Rain,155
2012-12-21,41,37,33,41,36,34,100,100,100,29.86,29.82,29.75,10,10,10,2,2,,0.00,8,Rain,126
2012-12-22,41,38,35,41,39,36,100,100,100,29.75,29.67,29.59,10,6,1,5,2,,0.00,8,Rain,152
2012-12-23,39,37,35,39,37,36,100,100,100,29.82,29.71,29.63,10,7,1,12,3,,0.00,8,Rain,122
2012-12-24,42,40,39,43,41,39,100,100,100,30.21,30.17,30.08,10,8,4,8,5,,0.00,8,Rain,233
2012-12-25,33,33,33,34,34,34,100,100,100,29.91,29.83,29.79,7,4,2,5,3,,0.00,8,Rain-Snow,173
2012-12-26,37,35,33,37,36,34,100,100,100,29.95,29.91,29.84,7,5,2,2,2,,0.00,8,Rain,172
2012-12-27,42,40,37,43,40,37,100,100,100,30.21,30.17,30.12,10,7,3,5,4,,0.00,7,Rain,215
2012-12-28,37,34,32,37,34,32,100,100,100,30.21,30.19,30.18,10,10,10,4,3,,0.00,7,,112
2012-12-29,39,34,28,39,34,28,100,100,100,30.28,30.23,30.18,10,10,5,7,3,,0.00,7,Snow,89
2012-12-30,39,36,30,34,33,30,100,94,81,30.35,30.33,30.32,10,10,10,15,6,23,0.00,1,,95
2012-12-31,32,29,26,32,30,27,100,100,100,30.43,30.37,30.34,10,10,5,5,3,,0.00,8,Snow,52